sensor_id;sensor_type;location;lat;lon;timestamp;temperature;humidity
11089;DHT22;5598;48.648;8.908;2023-08-12T00:00:10;21.70;94.30
11089;DHT22;5598;48.648;8.908;2023-08-12T00:02:38;21.60;94.40
11089;DHT22;5598;48.648;8.908;2023-08-12T00:05:05;21.50;94.60
11089;DHT22;5598;48.648;8.908;2023-08-12T00:07:32;21.50;94.60
11089;DHT22;5598;48.648;8.908;2023-08-12T00:09:59;21.40;94.50
11089;DHT22;5598;48.648;8.908;2023-08-12T00:12:26;21.40;94.30
11089;DHT22;5598;48.648;8.908;2023-08-12T00:14:55;21.40;94.50
11089;DHT22;5598;48.648;8.908;2023-08-12T00:17:22;21.30;94.50
11089;DHT22;5598;48.648;8.908;2023-08-12T00:19:49;21.30;94.70
11089;DHT22;5598;48.648;8.908;2023-08-12T00:22:15;21.30;94.90
11089;DHT22;5598;48.648;8.908;2023-08-12T00:24:42;21.30;94.70
11089;DHT22;5598;48.648;8.908;2023-08-12T00:27:10;21.30;94.80
11089;DHT22;5598;48.648;8.908;2023-08-12T00:29:36;21.20;94.70
11089;DHT22;5598;48.648;8.908;2023-08-12T00:32:05;21.10;94.70
11089;DHT22;5598;48.648;8.908;2023-08-12T00:34:32;21.10;95.10
11089;DHT22;5598;48.648;8.908;2023-08-12T00:36:59;21.10;95.00
11089;DHT22;5598;48.648;8.908;2023-08-12T00:39:25;21.10;94.80
11089;DHT22;5598;48.648;8.908;2023-08-12T00:41:52;21.10;94.90
11089;DHT22;5598;48.648;8.908;2023-08-12T00:44:19;21.10;94.90
11089;DHT22;5598;48.648;8.908;2023-08-12T00:46:46;21.00;95.10
11089;DHT22;5598;48.648;8.908;2023-08-12T00:49:16;21.00;95.10
11089;DHT22;5598;48.648;8.908;2023-08-12T00:51:44;21.00;95.00
11089;DHT22;5598;48.648;8.908;2023-08-12T00:54:14;20.90;95.10
11089;DHT22;5598;48.648;8.908;2023-08-12T00:56:41;20.90;95.10
11089;DHT22;5598;48.648;8.908;2023-08-12T00:59:09;20.90;94.90
11089;DHT22;5598;48.648;8.908;2023-08-12T01:01:39;20.80;95.00
11089;DHT22;5598;48.648;8.908;2023-08-12T01:04:06;20.80;95.40
11089;DHT22;5598;48.648;8.908;2023-08-12T01:06:34;20.80;95.60
11089;DHT22;5598;48.648;8.908;2023-08-12T01:09:03;20.80;95.60
11089;DHT22;5598;48.648;8.908;2023-08-12T01:11:36;20.70;96.00
11089;DHT22;5598;48.648;8.908;2023-08-12T01:14:08;20.70;96.10
11089;DHT22;5598;48.648;8.908;2023-08-12T01:16:41;20.70;96.10
11089;DHT22;5598;48.648;8.908;2023-08-12T01:19:11;20.70;96.00
11089;DHT22;5598;48.648;8.908;2023-08-12T01:21:49;20.80;95.80
11089;DHT22;5598;48.648;8.908;2023-08-12T01:24:21;20.80;95.60
11089;DHT22;5598;48.648;8.908;2023-08-12T01:26:48;20.80;95.70
11089;DHT22;5598;48.648;8.908;2023-08-12T01:29:15;20.80;95.70
11089;DHT22;5598;48.648;8.908;2023-08-12T01:31:46;20.70;95.90
11089;DHT22;5598;48.648;8.908;2023-08-12T01:34:19;20.70;96.30
11089;DHT22;5598;48.648;8.908;2023-08-12T01:36:51;20.70;96.30
11089;DHT22;5598;48.648;8.908;2023-08-12T01:39:23;20.70;96.20
11089;DHT22;5598;48.648;8.908;2023-08-12T01:41:51;20.80;96.20
11089;DHT22;5598;48.648;8.908;2023-08-12T01:44:19;20.70;96.30
11089;DHT22;5598;48.648;8.908;2023-08-12T01:46:45;20.70;96.50
11089;DHT22;5598;48.648;8.908;2023-08-12T01:49:12;20.60;96.60
11089;DHT22;5598;48.648;8.908;2023-08-12T01:51:39;20.60;96.90
11089;DHT22;5598;48.648;8.908;2023-08-12T01:54:06;20.60;96.90
11089;DHT22;5598;48.648;8.908;2023-08-12T01:56:34;20.60;97.10
11089;DHT22;5598;48.648;8.908;2023-08-12T01:59:01;20.60;97.00
11089;DHT22;5598;48.648;8.908;2023-08-12T02:01:27;20.50;97.40
11089;DHT22;5598;48.648;8.908;2023-08-12T02:03:54;20.50;97.60
11089;DHT22;5598;48.648;8.908;2023-08-12T02:06:21;20.50;97.80
11089;DHT22;5598;48.648;8.908;2023-08-12T02:08:48;20.50;97.80
11089;DHT22;5598;48.648;8.908;2023-08-12T02:11:16;20.60;97.70
11089;DHT22;5598;48.648;8.908;2023-08-12T02:13:44;20.60;97.80
11089;DHT22;5598;48.648;8.908;2023-08-12T02:16:10;20.70;98.00
11089;DHT22;5598;48.648;8.908;2023-08-12T02:18:37;20.70;98.00
11089;DHT22;5598;48.648;8.908;2023-08-12T02:21:04;20.70;98.10
11089;DHT22;5598;48.648;8.908;2023-08-12T02:23:31;20.70;98.20
11089;DHT22;5598;48.648;8.908;2023-08-12T02:25:57;20.70;98.10
11089;DHT22;5598;48.648;8.908;2023-08-12T02:28:25;20.70;98.00
11089;DHT22;5598;48.648;8.908;2023-08-12T02:30:53;20.80;98.00
11089;DHT22;5598;48.648;8.908;2023-08-12T02:33:20;20.80;98.20
11089;DHT22;5598;48.648;8.908;2023-08-12T02:35:47;20.80;98.00
11089;DHT22;5598;48.648;8.908;2023-08-12T02:38:14;20.90;98.10
11089;DHT22;5598;48.648;8.908;2023-08-12T02:40:41;20.80;98.10
11089;DHT22;5598;48.648;8.908;2023-08-12T02:43:07;20.80;98.20
11089;DHT22;5598;48.648;8.908;2023-08-12T02:45:35;20.80;98.20
11089;DHT22;5598;48.648;8.908;2023-08-12T02:48:05;20.80;98.30
11089;DHT22;5598;48.648;8.908;2023-08-12T02:50:31;20.80;98.30
11089;DHT22;5598;48.648;8.908;2023-08-12T02:52:58;20.80;98.30
11089;DHT22;5598;48.648;8.908;2023-08-12T02:55:25;20.80;98.30
11089;DHT22;5598;48.648;8.908;2023-08-12T02:57:52;20.70;98.10
11089;DHT22;5598;48.648;8.908;2023-08-12T03:00:19;20.90;98.20
11089;DHT22;5598;48.648;8.908;2023-08-12T03:02:45;20.80;98.00
11089;DHT22;5598;48.648;8.908;2023-08-12T03:05:14;20.70;98.20
11089;DHT22;5598;48.648;8.908;2023-08-12T03:07:40;20.70;98.20
11089;DHT22;5598;48.648;8.908;2023-08-12T03:10:08;20.60;98.20
11089;DHT22;5598;48.648;8.908;2023-08-12T03:12:35;20.70;98.30
11089;DHT22;5598;48.648;8.908;2023-08-12T03:15:01;20.70;98.60
11089;DHT22;5598;48.648;8.908;2023-08-12T03:17:28;20.80;98.60
11089;DHT22;5598;48.648;8.908;2023-08-12T03:19:57;20.70;98.70
11089;DHT22;5598;48.648;8.908;2023-08-12T03:22:26;20.80;98.60
11089;DHT22;5598;48.648;8.908;2023-08-12T03:24:53;20.80;98.50
11089;DHT22;5598;48.648;8.908;2023-08-12T03:27:20;20.80;98.50
11089;DHT22;5598;48.648;8.908;2023-08-12T03:29:47;20.80;98.60
11089;DHT22;5598;48.648;8.908;2023-08-12T03:32:14;20.80;98.60
11089;DHT22;5598;48.648;8.908;2023-08-12T03:34:40;20.70;98.70
11089;DHT22;5598;48.648;8.908;2023-08-12T03:37:07;20.70;98.80
11089;DHT22;5598;48.648;8.908;2023-08-12T03:39:35;20.70;98.90
11089;DHT22;5598;48.648;8.908;2023-08-12T03:42:02;20.70;98.90
11089;DHT22;5598;48.648;8.908;2023-08-12T03:44:29;20.70;99.00
11089;DHT22;5598;48.648;8.908;2023-08-12T03:46:56;20.70;99.00
11089;DHT22;5598;48.648;8.908;2023-08-12T03:49:23;20.60;99.20
11089;DHT22;5598;48.648;8.908;2023-08-12T03:51:49;20.60;99.10
11089;DHT22;5598;48.648;8.908;2023-08-12T03:54:16;20.60;99.20
11089;DHT22;5598;48.648;8.908;2023-08-12T03:56:44;20.50;99.30
11089;DHT22;5598;48.648;8.908;2023-08-12T03:59:11;20.40;99.60
11089;DHT22;5598;48.648;8.908;2023-08-12T04:01:38;20.40;99.60
11089;DHT22;5598;48.648;8.908;2023-08-12T04:04:05;20.40;99.50
11089;DHT22;5598;48.648;8.908;2023-08-12T04:06:32;20.50;99.60
11089;DHT22;5598;48.648;8.908;2023-08-12T04:08:59;20.40;99.70
11089;DHT22;5598;48.648;8.908;2023-08-12T04:11:25;20.40;99.70
11089;DHT22;5598;48.648;8.908;2023-08-12T04:13:53;20.40;99.60
11089;DHT22;5598;48.648;8.908;2023-08-12T04:16:20;20.40;99.70
11089;DHT22;5598;48.648;8.908;2023-08-12T04:18:47;20.20;99.80
11089;DHT22;5598;48.648;8.908;2023-08-12T04:21:14;20.30;99.90
11089;DHT22;5598;48.648;8.908;2023-08-12T04:23:41;20.40;99.90
11089;DHT22;5598;48.648;8.908;2023-08-12T04:26:07;20.40;99.90
11089;DHT22;5598;48.648;8.908;2023-08-12T04:28:34;20.50;99.80
11089;DHT22;5598;48.648;8.908;2023-08-12T04:31:06;20.50;99.90
11089;DHT22;5598;48.648;8.908;2023-08-12T04:33:33;20.40;99.90
11089;DHT22;5598;48.648;8.908;2023-08-12T04:36:00;20.50;99.90
11089;DHT22;5598;48.648;8.908;2023-08-12T04:38:27;20.60;99.90
11089;DHT22;5598;48.648;8.908;2023-08-12T04:40:54;20.50;99.90
11089;DHT22;5598;48.648;8.908;2023-08-12T04:43:21;20.50;99.90
11089;DHT22;5598;48.648;8.908;2023-08-12T04:45:47;20.40;99.90
11089;DHT22;5598;48.648;8.908;2023-08-12T04:48:16;20.30;99.90
11089;DHT22;5598;48.648;8.908;2023-08-12T04:50:42;20.30;99.90
11089;DHT22;5598;48.648;8.908;2023-08-12T04:53:09;20.40;99.90
11089;DHT22;5598;48.648;8.908;2023-08-12T04:55:36;20.30;99.90
11089;DHT22;5598;48.648;8.908;2023-08-12T04:58:04;20.40;99.90
11089;DHT22;5598;48.648;8.908;2023-08-12T05:00:31;20.30;99.90
11089;DHT22;5598;48.648;8.908;2023-08-12T05:02:58;20.20;99.90
11089;DHT22;5598;48.648;8.908;2023-08-12T05:05:27;20.30;99.90
11089;DHT22;5598;48.648;8.908;2023-08-12T05:07:53;20.30;99.90
11089;DHT22;5598;48.648;8.908;2023-08-12T05:10:20;20.30;99.90
11089;DHT22;5598;48.648;8.908;2023-08-12T05:12:47;20.30;99.90
11089;DHT22;5598;48.648;8.908;2023-08-12T05:15:15;20.10;99.90
11089;DHT22;5598;48.648;8.908;2023-08-12T05:17:42;20.20;99.90
11089;DHT22;5598;48.648;8.908;2023-08-12T05:20:09;20.20;99.90
11089;DHT22;5598;48.648;8.908;2023-08-12T05:22:38;20.20;99.90
11089;DHT22;5598;48.648;8.908;2023-08-12T05:25:05;20.20;99.90
11089;DHT22;5598;48.648;8.908;2023-08-12T05:27:32;20.30;99.90
11089;DHT22;5598;48.648;8.908;2023-08-12T05:29:59;20.30;99.90
11089;DHT22;5598;48.648;8.908;2023-08-12T05:32:26;20.30;99.90
11089;DHT22;5598;48.648;8.908;2023-08-12T05:34:53;20.30;99.90
11089;DHT22;5598;48.648;8.908;2023-08-12T05:37:20;20.40;99.90
11089;DHT22;5598;48.648;8.908;2023-08-12T05:39:48;20.40;99.90
11089;DHT22;5598;48.648;8.908;2023-08-12T05:42:14;20.40;99.90
11089;DHT22;5598;48.648;8.908;2023-08-12T05:44:42;20.40;99.90
11089;DHT22;5598;48.648;8.908;2023-08-12T05:47:09;20.40;99.90
11089;DHT22;5598;48.648;8.908;2023-08-12T05:49:35;20.40;99.90
11089;DHT22;5598;48.648;8.908;2023-08-12T05:52:02;20.40;99.90
11089;DHT22;5598;48.648;8.908;2023-08-12T05:54:29;20.60;99.90
11089;DHT22;5598;48.648;8.908;2023-08-12T05:56:58;20.70;99.90
11089;DHT22;5598;48.648;8.908;2023-08-12T05:59:24;20.70;99.90
11089;DHT22;5598;48.648;8.908;2023-08-12T06:01:51;20.70;99.90
11089;DHT22;5598;48.648;8.908;2023-08-12T06:04:18;20.80;99.90
11089;DHT22;5598;48.648;8.908;2023-08-12T06:06:45;20.80;99.90
11089;DHT22;5598;48.648;8.908;2023-08-12T06:09:11;20.90;99.90
11089;DHT22;5598;48.648;8.908;2023-08-12T06:11:38;20.90;99.90
11089;DHT22;5598;48.648;8.908;2023-08-12T06:14:06;21.00;99.90
11089;DHT22;5598;48.648;8.908;2023-08-12T06:16:33;21.10;99.90
11089;DHT22;5598;48.648;8.908;2023-08-12T06:19:00;21.10;99.90
11089;DHT22;5598;48.648;8.908;2023-08-12T06:21:27;21.20;99.90
11089;DHT22;5598;48.648;8.908;2023-08-12T06:23:54;21.30;99.90
11089;DHT22;5598;48.648;8.908;2023-08-12T06:26:21;21.30;99.90
11089;DHT22;5598;48.648;8.908;2023-08-12T06:28:48;21.40;99.90
11089;DHT22;5598;48.648;8.908;2023-08-12T06:31:16;21.50;99.90
11089;DHT22;5598;48.648;8.908;2023-08-12T06:33:43;21.60;99.90
11089;DHT22;5598;48.648;8.908;2023-08-12T06:36:10;21.60;99.90
11089;DHT22;5598;48.648;8.908;2023-08-12T06:38:37;21.70;99.90
11089;DHT22;5598;48.648;8.908;2023-08-12T06:41:04;21.70;99.90
11089;DHT22;5598;48.648;8.908;2023-08-12T06:43:31;21.80;99.90
11089;DHT22;5598;48.648;8.908;2023-08-12T06:45:57;22.00;99.90
11089;DHT22;5598;48.648;8.908;2023-08-12T06:48:25;22.00;99.90
11089;DHT22;5598;48.648;8.908;2023-08-12T06:50:56;22.10;99.90
11089;DHT22;5598;48.648;8.908;2023-08-12T06:53:24;22.10;99.90
11089;DHT22;5598;48.648;8.908;2023-08-12T06:55:51;22.20;99.90
11089;DHT22;5598;48.648;8.908;2023-08-12T06:58:17;22.30;99.90
11089;DHT22;5598;48.648;8.908;2023-08-12T07:00:44;22.40;99.90
11089;DHT22;5598;48.648;8.908;2023-08-12T07:03:11;22.40;99.70
11089;DHT22;5598;48.648;8.908;2023-08-12T07:05:39;22.50;98.80
11089;DHT22;5598;48.648;8.908;2023-08-12T07:08:06;22.60;99.20
11089;DHT22;5598;48.648;8.908;2023-08-12T07:10:32;22.50;99.50
11089;DHT22;5598;48.648;8.908;2023-08-12T07:12:59;22.60;98.60
11089;DHT22;5598;48.648;8.908;2023-08-12T07:15:26;22.60;98.50
11089;DHT22;5598;48.648;8.908;2023-08-12T07:17:53;22.70;98.50
11089;DHT22;5598;48.648;8.908;2023-08-12T07:20:19;22.70;98.40
11089;DHT22;5598;48.648;8.908;2023-08-12T07:22:48;22.80;98.00
11089;DHT22;5598;48.648;8.908;2023-08-12T07:25:14;22.80;98.00
11089;DHT22;5598;48.648;8.908;2023-08-12T07:27:41;22.90;97.80
11089;DHT22;5598;48.648;8.908;2023-08-12T07:30:09;23.00;97.80
11089;DHT22;5598;48.648;8.908;2023-08-12T07:32:37;23.00;97.70
11089;DHT22;5598;48.648;8.908;2023-08-12T07:35:05;23.00;97.80
11089;DHT22;5598;48.648;8.908;2023-08-12T07:37:32;23.10;97.80
11089;DHT22;5598;48.648;8.908;2023-08-12T07:40:00;23.20;97.40
11089;DHT22;5598;48.648;8.908;2023-08-12T07:42:28;23.30;97.30
11089;DHT22;5598;48.648;8.908;2023-08-12T07:44:55;23.40;96.90
11089;DHT22;5598;48.648;8.908;2023-08-12T07:47:22;23.40;97.10
11089;DHT22;5598;48.648;8.908;2023-08-12T07:49:49;23.40;97.30
11089;DHT22;5598;48.648;8.908;2023-08-12T07:52:16;23.40;97.40
11089;DHT22;5598;48.648;8.908;2023-08-12T07:54:42;23.60;97.30
11089;DHT22;5598;48.648;8.908;2023-08-12T07:57:11;23.90;96.70
11089;DHT22;5598;48.648;8.908;2023-08-12T07:59:37;24.20;96.70
11089;DHT22;5598;48.648;8.908;2023-08-12T08:02:04;24.40;96.20
11089;DHT22;5598;48.648;8.908;2023-08-12T08:04:31;24.60;95.70
11089;DHT22;5598;48.648;8.908;2023-08-12T08:06:58;24.70;95.90
11089;DHT22;5598;48.648;8.908;2023-08-12T08:09:25;24.80;96.00
11089;DHT22;5598;48.648;8.908;2023-08-12T08:11:51;24.90;95.60
11089;DHT22;5598;48.648;8.908;2023-08-12T08:14:20;25.00;95.30
11089;DHT22;5598;48.648;8.908;2023-08-12T08:16:47;25.00;95.30
11089;DHT22;5598;48.648;8.908;2023-08-12T08:19:13;25.10;95.10
11089;DHT22;5598;48.648;8.908;2023-08-12T08:21:40;25.10;95.00
11089;DHT22;5598;48.648;8.908;2023-08-12T08:24:07;25.20;94.70
11089;DHT22;5598;48.648;8.908;2023-08-12T08:26:36;25.40;95.10
11089;DHT22;5598;48.648;8.908;2023-08-12T08:29:03;25.50;95.10
11089;DHT22;5598;48.648;8.908;2023-08-12T08:31:31;25.70;94.30
11089;DHT22;5598;48.648;8.908;2023-08-12T08:33:58;25.90;94.40
11089;DHT22;5598;48.648;8.908;2023-08-12T08:36:25;26.10;93.90
11089;DHT22;5598;48.648;8.908;2023-08-12T08:38:52;26.40;93.00
11089;DHT22;5598;48.648;8.908;2023-08-12T08:41:19;26.50;92.30
11089;DHT22;5598;48.648;8.908;2023-08-12T08:43:47;26.60;92.70
11089;DHT22;5598;48.648;8.908;2023-08-12T08:46:15;27.00;92.10
11089;DHT22;5598;48.648;8.908;2023-08-12T08:48:44;27.40;91.20
11089;DHT22;5598;48.648;8.908;2023-08-12T08:51:11;27.80;90.30
11089;DHT22;5598;48.648;8.908;2023-08-12T08:53:38;28.20;89.20
11089;DHT22;5598;48.648;8.908;2023-08-12T08:56:06;28.60;88.10
11089;DHT22;5598;48.648;8.908;2023-08-12T08:58:37;28.80;87.00
11089;DHT22;5598;48.648;8.908;2023-08-12T09:01:05;28.80;86.40
11089;DHT22;5598;48.648;8.908;2023-08-12T09:03:33;28.80;85.90
11089;DHT22;5598;48.648;8.908;2023-08-12T09:06:03;28.70;84.20
11089;DHT22;5598;48.648;8.908;2023-08-12T09:08:31;29.00;84.40
11089;DHT22;5598;48.648;8.908;2023-08-12T09:11:00;29.20;82.50
11089;DHT22;5598;48.648;8.908;2023-08-12T09:13:27;29.10;82.30
11089;DHT22;5598;48.648;8.908;2023-08-12T09:15:54;29.10;82.40
11089;DHT22;5598;48.648;8.908;2023-08-12T09:18:21;28.90;83.30
11089;DHT22;5598;48.648;8.908;2023-08-12T09:20:49;28.80;83.80
11089;DHT22;5598;48.648;8.908;2023-08-12T09:23:17;28.60;84.10
11089;DHT22;5598;48.648;8.908;2023-08-12T09:25:44;28.40;84.10
11089;DHT22;5598;48.648;8.908;2023-08-12T09:28:12;28.30;84.50
11089;DHT22;5598;48.648;8.908;2023-08-12T09:30:39;28.30;83.80
11089;DHT22;5598;48.648;8.908;2023-08-12T09:33:07;28.20;84.50
11089;DHT22;5598;48.648;8.908;2023-08-12T09:35:36;28.20;84.50
11089;DHT22;5598;48.648;8.908;2023-08-12T09:38:05;28.20;84.20
11089;DHT22;5598;48.648;8.908;2023-08-12T09:40:34;28.20;83.80
11089;DHT22;5598;48.648;8.908;2023-08-12T09:43:01;28.10;85.50
11089;DHT22;5598;48.648;8.908;2023-08-12T09:45:30;28.00;84.00
11089;DHT22;5598;48.648;8.908;2023-08-12T09:47:57;27.90;84.40
11089;DHT22;5598;48.648;8.908;2023-08-12T09:50:24;27.90;84.70
11089;DHT22;5598;48.648;8.908;2023-08-12T09:52:52;27.80;84.40
11089;DHT22;5598;48.648;8.908;2023-08-12T09:55:20;27.80;84.30
11089;DHT22;5598;48.648;8.908;2023-08-12T09:57:51;27.80;83.80
11089;DHT22;5598;48.648;8.908;2023-08-12T10:00:19;27.80;83.60
11089;DHT22;5598;48.648;8.908;2023-08-12T10:02:47;27.80;83.80
11089;DHT22;5598;48.648;8.908;2023-08-12T10:05:18;27.70;83.50
11089;DHT22;5598;48.648;8.908;2023-08-12T10:07:45;27.70;83.70
11089;DHT22;5598;48.648;8.908;2023-08-12T10:10:14;27.60;84.50
11089;DHT22;5598;48.648;8.908;2023-08-12T10:12:41;27.60;84.10
11089;DHT22;5598;48.648;8.908;2023-08-12T10:15:09;27.60;84.30
11089;DHT22;5598;48.648;8.908;2023-08-12T10:17:37;27.70;84.70
11089;DHT22;5598;48.648;8.908;2023-08-12T10:20:05;27.70;85.00
11089;DHT22;5598;48.648;8.908;2023-08-12T10:22:35;27.90;84.90
11089;DHT22;5598;48.648;8.908;2023-08-12T10:25:03;28.20;82.90
11089;DHT22;5598;48.648;8.908;2023-08-12T10:27:30;28.40;84.00
11089;DHT22;5598;48.648;8.908;2023-08-12T10:29:57;28.50;82.20
11089;DHT22;5598;48.648;8.908;2023-08-12T10:32:25;28.70;81.80
11089;DHT22;5598;48.648;8.908;2023-08-12T10:34:56;28.80;81.80
11089;DHT22;5598;48.648;8.908;2023-08-12T10:37:24;29.00;81.30
11089;DHT22;5598;48.648;8.908;2023-08-12T10:39:52;29.30;81.40
11089;DHT22;5598;48.648;8.908;2023-08-12T10:42:40;29.80;80.10
11089;DHT22;5598;48.648;8.908;2023-08-12T10:45:09;30.30;78.10
11089;DHT22;5598;48.648;8.908;2023-08-12T10:47:42;30.60;77.80
11089;DHT22;5598;48.648;8.908;2023-08-12T10:50:19;30.70;76.10
11089;DHT22;5598;48.648;8.908;2023-08-12T10:52:46;30.60;76.80
11089;DHT22;5598;48.648;8.908;2023-08-12T10:55:17;30.30;77.00
11089;DHT22;5598;48.648;8.908;2023-08-12T10:57:44;30.30;77.50
11089;DHT22;5598;48.648;8.908;2023-08-12T11:00:14;30.50;78.70
11089;DHT22;5598;48.648;8.908;2023-08-12T11:02:44;30.70;77.50
11089;DHT22;5598;48.648;8.908;2023-08-12T11:05:12;30.90;76.80
11089;DHT22;5598;48.648;8.908;2023-08-12T11:07:41;30.90;76.60
11089;DHT22;5598;48.648;8.908;2023-08-12T11:10:11;30.80;76.80
11089;DHT22;5598;48.648;8.908;2023-08-12T11:12:39;30.60;77.60
11089;DHT22;5598;48.648;8.908;2023-08-12T11:15:08;30.50;76.50
11089;DHT22;5598;48.648;8.908;2023-08-12T11:17:38;30.30;77.40
11089;DHT22;5598;48.648;8.908;2023-08-12T11:20:08;30.10;79.00
11089;DHT22;5598;48.648;8.908;2023-08-12T11:22:37;29.90;79.70
11089;DHT22;5598;48.648;8.908;2023-08-12T11:25:05;29.90;78.90
11089;DHT22;5598;48.648;8.908;2023-08-12T11:27:39;29.90;79.50
11089;DHT22;5598;48.648;8.908;2023-08-12T11:30:07;29.90;79.40
11089;DHT22;5598;48.648;8.908;2023-08-12T11:32:34;29.80;79.00
11089;DHT22;5598;48.648;8.908;2023-08-12T11:35:01;29.70;80.50
11089;DHT22;5598;48.648;8.908;2023-08-12T11:37:30;29.70;80.50
11089;DHT22;5598;48.648;8.908;2023-08-12T11:39:57;29.60;80.30
11089;DHT22;5598;48.648;8.908;2023-08-12T11:42:24;29.50;80.80
11089;DHT22;5598;48.648;8.908;2023-08-12T11:44:51;29.50;80.60
11089;DHT22;5598;48.648;8.908;2023-08-12T11:47:18;29.40;81.00
11089;DHT22;5598;48.648;8.908;2023-08-12T11:49:45;29.40;80.80
11089;DHT22;5598;48.648;8.908;2023-08-12T11:52:12;29.30;80.60
11089;DHT22;5598;48.648;8.908;2023-08-12T11:54:40;29.30;80.80
11089;DHT22;5598;48.648;8.908;2023-08-12T11:57:07;29.20;80.40
11089;DHT22;5598;48.648;8.908;2023-08-12T11:59:35;29.10;79.70
11089;DHT22;5598;48.648;8.908;2023-08-12T12:02:03;29.00;80.70
11089;DHT22;5598;48.648;8.908;2023-08-12T12:04:30;28.90;80.10
11089;DHT22;5598;48.648;8.908;2023-08-12T12:06:58;28.70;82.80
11089;DHT22;5598;48.648;8.908;2023-08-12T12:09:25;28.40;89.40
11089;DHT22;5598;48.648;8.908;2023-08-12T12:11:53;28.00;90.40
11089;DHT22;5598;48.648;8.908;2023-08-12T12:14:21;27.60;90.70
11089;DHT22;5598;48.648;8.908;2023-08-12T12:16:48;27.10;91.20
11089;DHT22;5598;48.648;8.908;2023-08-12T12:19:17;26.90;91.70
11089;DHT22;5598;48.648;8.908;2023-08-12T12:21:46;26.70;92.40
11089;DHT22;5598;48.648;8.908;2023-08-12T12:24:13;26.60;93.80
11089;DHT22;5598;48.648;8.908;2023-08-12T12:26:40;26.30;93.80
11089;DHT22;5598;48.648;8.908;2023-08-12T12:29:10;26.10;93.40
11089;DHT22;5598;48.648;8.908;2023-08-12T12:31:38;25.90;93.80
11089;DHT22;5598;48.648;8.908;2023-08-12T12:34:06;25.80;95.00
11089;DHT22;5598;48.648;8.908;2023-08-12T12:36:34;25.70;94.90
11089;DHT22;5598;48.648;8.908;2023-08-12T12:39:01;25.60;97.00
11089;DHT22;5598;48.648;8.908;2023-08-12T12:41:28;25.60;98.20
11089;DHT22;5598;48.648;8.908;2023-08-12T12:43:55;25.40;98.10
11089;DHT22;5598;48.648;8.908;2023-08-12T12:46:23;25.40;96.10
11089;DHT22;5598;48.648;8.908;2023-08-12T12:48:50;25.20;96.50
11089;DHT22;5598;48.648;8.908;2023-08-12T12:51:17;25.10;96.80
11089;DHT22;5598;48.648;8.908;2023-08-12T12:53:44;25.10;96.90
11089;DHT22;5598;48.648;8.908;2023-08-12T12:56:10;25.00;97.20
11089;DHT22;5598;48.648;8.908;2023-08-12T12:58:37;25.00;96.80
11089;DHT22;5598;48.648;8.908;2023-08-12T13:01:05;25.00;97.50
11089;DHT22;5598;48.648;8.908;2023-08-12T13:03:34;25.00;97.30
11089;DHT22;5598;48.648;8.908;2023-08-12T13:06:00;25.00;97.00
11089;DHT22;5598;48.648;8.908;2023-08-12T13:08:28;25.00;97.10
11089;DHT22;5598;48.648;8.908;2023-08-12T13:10:56;24.90;97.00
11089;DHT22;5598;48.648;8.908;2023-08-12T13:13:23;24.90;97.20
11089;DHT22;5598;48.648;8.908;2023-08-12T13:15:50;24.90;97.40
11089;DHT22;5598;48.648;8.908;2023-08-12T13:18:16;24.80;98.00
11089;DHT22;5598;48.648;8.908;2023-08-12T13:20:45;24.80;98.30
11089;DHT22;5598;48.648;8.908;2023-08-12T13:23:11;24.80;98.40
11089;DHT22;5598;48.648;8.908;2023-08-12T13:25:38;24.80;98.40
11089;DHT22;5598;48.648;8.908;2023-08-12T13:28:05;24.80;98.50
11089;DHT22;5598;48.648;8.908;2023-08-12T13:30:32;24.80;98.30
11089;DHT22;5598;48.648;8.908;2023-08-12T13:32:59;24.90;98.20
11089;DHT22;5598;48.648;8.908;2023-08-12T13:35:26;25.00;98.20
11089;DHT22;5598;48.648;8.908;2023-08-12T13:37:54;25.10;98.00
11089;DHT22;5598;48.648;8.908;2023-08-12T13:40:21;25.30;96.80
11089;DHT22;5598;48.648;8.908;2023-08-12T13:42:47;25.40;96.80
11089;DHT22;5598;48.648;8.908;2023-08-12T13:45:15;25.40;96.90
11089;DHT22;5598;48.648;8.908;2023-08-12T13:47:42;25.40;96.70
11089;DHT22;5598;48.648;8.908;2023-08-12T13:50:09;25.50;96.70
11089;DHT22;5598;48.648;8.908;2023-08-12T13:52:37;25.50;97.20
11089;DHT22;5598;48.648;8.908;2023-08-12T13:55:06;25.60;96.70
11089;DHT22;5598;48.648;8.908;2023-08-12T13:57:33;25.70;96.70
11089;DHT22;5598;48.648;8.908;2023-08-12T13:59:59;25.70;97.10
11089;DHT22;5598;48.648;8.908;2023-08-12T14:02:27;25.80;96.80
11089;DHT22;5598;48.648;8.908;2023-08-12T14:04:55;26.00;96.60
11089;DHT22;5598;48.648;8.908;2023-08-12T14:07:21;26.30;95.30
11089;DHT22;5598;48.648;8.908;2023-08-12T14:09:48;26.60;94.50
11089;DHT22;5598;48.648;8.908;2023-08-12T14:12:16;26.80;93.50
11089;DHT22;5598;48.648;8.908;2023-08-12T14:14:43;27.00;93.40
11089;DHT22;5598;48.648;8.908;2023-08-12T14:17:11;27.10;92.90
11089;DHT22;5598;48.648;8.908;2023-08-12T14:19:40;27.10;93.40
11089;DHT22;5598;48.648;8.908;2023-08-12T14:22:08;27.20;92.80
11089;DHT22;5598;48.648;8.908;2023-08-12T14:24:34;27.30;92.30
11089;DHT22;5598;48.648;8.908;2023-08-12T14:27:01;27.50;91.80
11089;DHT22;5598;48.648;8.908;2023-08-12T14:29:30;27.50;92.70
11089;DHT22;5598;48.648;8.908;2023-08-12T14:31:57;27.60;92.50
11089;DHT22;5598;48.648;8.908;2023-08-12T14:34:24;27.80;92.10
11089;DHT22;5598;48.648;8.908;2023-08-12T14:36:51;27.80;90.20
11089;DHT22;5598;48.648;8.908;2023-08-12T14:39:17;27.90;90.40
11089;DHT22;5598;48.648;8.908;2023-08-12T14:41:44;28.10;90.20
11089;DHT22;5598;48.648;8.908;2023-08-12T14:44:11;28.20;89.10
11089;DHT22;5598;48.648;8.908;2023-08-12T14:46:39;28.20;89.00
11089;DHT22;5598;48.648;8.908;2023-08-12T14:49:06;28.30;89.50
11089;DHT22;5598;48.648;8.908;2023-08-12T14:51:32;28.20;89.10
11089;DHT22;5598;48.648;8.908;2023-08-12T14:53:59;28.20;89.00
11089;DHT22;5598;48.648;8.908;2023-08-12T14:56:26;28.20;89.10
11089;DHT22;5598;48.648;8.908;2023-08-12T14:58:53;28.10;88.40
11089;DHT22;5598;48.648;8.908;2023-08-12T15:01:20;28.00;89.20
11089;DHT22;5598;48.648;8.908;2023-08-12T15:03:48;28.00;89.70
11089;DHT22;5598;48.648;8.908;2023-08-12T15:06:15;28.10;89.40
11089;DHT22;5598;48.648;8.908;2023-08-12T15:08:42;28.10;89.00
11089;DHT22;5598;48.648;8.908;2023-08-12T15:11:09;28.10;89.30
11089;DHT22;5598;48.648;8.908;2023-08-12T15:13:35;28.00;90.10
11089;DHT22;5598;48.648;8.908;2023-08-12T15:16:02;27.90;90.10
11089;DHT22;5598;48.648;8.908;2023-08-12T15:18:29;27.80;90.40
11089;DHT22;5598;48.648;8.908;2023-08-12T15:20:57;27.80;90.30
11089;DHT22;5598;48.648;8.908;2023-08-12T15:23:24;27.70;90.70
11089;DHT22;5598;48.648;8.908;2023-08-12T15:25:51;27.60;90.80
11089;DHT22;5598;48.648;8.908;2023-08-12T15:28:17;27.50;90.70
11089;DHT22;5598;48.648;8.908;2023-08-12T15:30:47;27.40;91.10
11089;DHT22;5598;48.648;8.908;2023-08-12T15:33:15;27.40;91.30
11089;DHT22;5598;48.648;8.908;2023-08-12T15:35:42;27.30;91.50
11089;DHT22;5598;48.648;8.908;2023-08-12T15:38:10;27.20;91.50
11089;DHT22;5598;48.648;8.908;2023-08-12T15:40:37;27.20;91.70
11089;DHT22;5598;48.648;8.908;2023-08-12T15:43:04;27.20;91.70
11089;DHT22;5598;48.648;8.908;2023-08-12T15:45:30;27.10;91.80